Time;durP1;ratioP1;P1;durP2;ratioP2;P2;SDS_P1;SDS_P2;PMS_P1;PMS_P2;Temp;Humidity;BMP_temperature;BMP_pressure;BME280_temperature;BME280_humidity;BME280_pressure;Samples;Min_cycle;Max_cycle;Signal;HPM_P1;HPM_P2
2023/06/30 00:00:12;;;;;;;10.60;9.80;;;23.20;1.00;;;;;;4965640;28;20465;-75
2023/06/30 00:02:40;;;;;;;10.63;9.70;;;23.20;1.00;;;;;;4963541;28;21369;-73
2023/06/30 00:05:08;;;;;;;9.93;9.23;;;23.20;1.00;;;;;;4967052;28;20899;-74
2023/06/30 00:07:35;;;;;;;10.67;9.80;;;23.20;1.00;;;;;;4964586;28;20554;-73
2023/06/30 00:10:03;;;;;;;9.77;9.07;;;23.20;1.00;;;;;;4967395;28;20519;-73
2023/06/30 00:12:30;;;;;;;10.90;10.07;;;23.20;1.00;;;;;;4959969;28;20539;-73
2023/06/30 00:14:58;;;;;;;8.43;7.87;;;23.10;1.00;;;;;;4961585;28;20485;-73
2023/06/30 00:17:25;;;;;;;9.67;8.97;;;23.20;1.00;;;;;;4965472;28;20561;-73
2023/06/30 00:19:52;;;;;;;9.17;8.37;;;23.20;1.00;;;;;;4967119;28;20525;-73
2023/06/30 00:22:21;;;;;;;8.87;8.17;;;23.20;1.00;;;;;;4965297;28;20473;-73
2023/06/30 00:24:49;;;;;;;8.77;8.17;;;23.10;1.00;;;;;;4964743;28;20476;-72
2023/06/30 00:27:16;;;;;;;9.77;8.60;;;23.10;1.00;;;;;;4961715;28;20467;-73
2023/06/30 00:29:43;;;;;;;8.77;8.07;;;23.20;1.00;;;;;;4954702;28;20536;-73
2023/06/30 00:32:14;;;;;;;10.70;9.67;;;23.20;1.00;;;;;;4954826;28;21140;-73
2023/06/30 00:34:41;;;;;;;9.60;8.80;;;23.20;1.00;;;;;;4954953;28;20602;-73
2023/06/30 00:37:08;;;;;;;12.67;11.30;;;23.20;1.00;;;;;;4954891;28;20653;-73
2023/06/30 00:39:35;;;;;;;13.53;12.33;;;23.10;1.00;;;;;;4955805;28;20895;-73
2023/06/30 00:42:03;;;;;;;15.27;13.77;;;23.10;1.00;;;;;;4961354;28;20471;-73
2023/06/30 00:44:30;;;;;;;16.20;14.70;;;23.00;1.00;;;;;;4965140;28;20458;-74
2023/06/30 00:46:59;;;;;;;15.03;13.57;;;22.80;1.00;;;;;;4954916;28;20514;-75
2023/06/30 01:05:03;;;;;;;17.37;15.77;;;22.10;1.00;;;;;;4934034;28;20475;-73
2023/06/30 01:07:36;;;;;;;18.83;17.00;;;22.00;1.00;;;;;;4941571;28;22999;-74
2023/06/30 01:10:09;;;;;;;18.17;16.47;;;21.90;1.00;;;;;;4938207;28;20460;-74
2023/06/30 01:12:37;;;;;;;19.03;17.27;;;21.90;1.00;;;;;;4943978;28;20526;-74
2023/06/30 01:15:06;;;;;;;20.00;18.10;;;21.80;1.00;;;;;;4946701;28;20468;-74
2023/06/30 01:17:34;;;;;;;19.07;16.30;;;21.70;1.00;;;;;;4944029;28;20571;-74
2023/06/30 01:20:09;;;;;;;17.10;15.40;;;21.50;1.00;;;;;;4944900;28;20593;-73
2023/06/30 01:22:44;;;;;;;20.43;18.20;;;21.20;1.00;;;;;;4943822;28;20546;-73
2023/06/30 01:25:14;;;;;;;20.47;18.40;;;20.90;1.00;;;;;;4946441;28;20449;-73
2023/06/30 01:27:42;;;;;;;19.33;17.43;;;20.80;1.00;;;;;;4947505;28;20905;-74
2023/06/30 01:30:10;;;;;;;18.77;16.87;;;20.60;1.00;;;;;;4933712;28;20473;-74
2023/06/30 01:32:37;;;;;;;20.43;18.37;;;20.50;1.00;;;;;;4935213;28;20889;-73
2023/06/30 01:35:06;;;;;;;20.17;18.23;;;20.40;1.00;;;;;;4933914;28;21268;-74
2023/06/30 01:37:33;;;;;;;20.53;18.40;;;20.30;1.00;;;;;;4936014;28;20485;-74
2023/06/30 01:40:03;;;;;;;19.13;17.10;;;20.30;1.00;;;;;;4935785;28;20580;-72
2023/06/30 01:42:30;;;;;;;21.67;19.57;;;20.20;1.00;;;;;;4943601;28;20466;-73
2023/06/30 01:44:59;;;;;;;21.83;19.70;;;20.10;1.00;;;;;;4943522;28;20458;-73
2023/06/30 01:47:26;;;;;;;21.40;18.13;;;20.10;1.00;;;;;;4941766;28;20477;-73
2023/06/30 01:49:53;;;;;;;21.10;19.20;;;20.10;1.00;;;;;;4938896;28;20450;-73
2023/06/30 01:52:22;;;;;;;20.50;18.50;;;20.10;1.00;;;;;;4938907;28;20533;-73
2023/06/30 01:54:49;;;;;;;20.50;18.40;;;20.10;1.00;;;;;;4940640;28;20942;-72
2023/06/30 01:57:16;;;;;;;20.90;18.83;;;20.10;1.00;;;;;;4941478;28;20588;-72
2023/06/30 01:59:43;;;;;;;21.87;19.60;;;20.10;1.00;;;;;;4943308;28;20463;-73
2023/06/30 02:02:10;;;;;;;20.17;18.03;;;20.20;1.00;;;;;;4942821;28;20920;-73
2023/06/30 02:04:37;;;;;;;21.83;19.63;;;20.20;1.00;;;;;;4937314;28;20816;-73
2023/06/30 02:07:04;;;;;;;20.67;18.67;;;20.20;1.00;;;;;;4936462;28;20525;-72
2023/06/30 02:09:33;;;;;;;20.40;18.20;;;20.20;1.00;;;;;;4945382;28;20933;-73
2023/06/30 02:12:00;;;;;;;18.43;16.63;;;20.20;1.00;;;;;;4946656;28;20572;-73
2023/06/30 02:14:27;;;;;;;19.07;17.17;;;20.30;1.00;;;;;;4939931;28;20548;-73
2023/06/30 02:16:54;;;;;;;19.63;17.70;;;20.40;1.00;;;;;;4947755;28;20506;-73
2023/06/30 02:19:23;;;;;;;21.90;19.13;;;20.50;1.00;;;;;;4949582;28;20458;-73
2023/06/30 02:21:50;;;;;;;20.00;18.00;;;20.50;1.00;;;;;;4947191;28;20468;-73
2023/06/30 02:24:17;;;;;;;20.00;18.17;;;20.50;1.00;;;;;;4948316;28;20510;-73
2023/06/30 02:26:47;;;;;;;21.30;19.10;;;20.70;1.00;;;;;;4948817;28;20497;-73
2023/06/30 02:29:14;;;;;;;20.00;17.90;;;20.70;1.00;;;;;;4949269;28;20472;-72
2023/06/30 02:31:41;;;;;;;19.73;17.63;;;20.70;1.00;;;;;;4942573;28;20502;-73
2023/06/30 02:34:07;;;;;;;20.37;18.07;;;20.70;1.00;;;;;;4944981;28;20625;-72
2023/06/30 02:36:34;;;;;;;21.07;18.93;;;20.70;1.00;;;;;;4949522;28;20526;-73
2023/06/30 02:39:01;;;;;;;19.90;18.00;;;20.70;1.00;;;;;;4947953;28;21080;-73
2023/06/30 02:41:28;;;;;;;20.50;18.30;;;20.70;1.00;;;;;;4947328;28;20479;-73
2023/06/30 02:43:56;;;;;;;23.53;21.13;;;20.80;1.00;;;;;;4950062;28;20561;-73
2023/06/30 02:46:23;;;;;;;21.40;19.10;;;20.80;1.00;;;;;;4948037;28;20478;-73
2023/06/30 02:48:50;;;;;;;21.00;18.90;;;20.80;1.00;;;;;;4950408;28;20884;-74
2023/06/30 02:51:17;;;;;;;20.93;18.80;;;20.80;1.00;;;;;;4945188;28;21395;-74
2023/06/30 02:53:44;;;;;;;19.77;17.87;;;20.80;1.00;;;;;;4950079;28;20462;-73
2023/06/30 02:56:11;;;;;;;21.10;18.90;;;20.80;1.00;;;;;;4951604;28;20464;-74
2023/06/30 02:58:39;;;;;;;21.23;19.07;;;20.70;1.00;;;;;;4947152;28;20469;-74
2023/06/30 03:01:08;;;;;;;20.73;18.67;;;20.70;1.00;;;;;;4949090;28;20554;-74
2023/06/30 03:03:36;;;;;;;22.03;19.83;;;20.60;1.00;;;;;;4948826;28;21037;-75
2023/06/30 03:06:03;;;;;;;20.07;18.07;;;20.50;1.00;;;;;;4949009;28;20485;-74
2023/06/30 03:08:30;;;;;;;23.27;21.00;;;20.40;1.00;;;;;;4948006;28;20587;-73
2023/06/30 03:10:57;;;;;;;20.77;18.77;;;20.30;1.00;;;;;;4943654;28;20475;-72
2023/06/30 03:13:25;;;;;;;21.27;19.33;;;20.30;1.00;;;;;;4946892;28;20507;-73
2023/06/30 03:15:51;;;;;;;23.53;20.50;;;20.20;1.00;;;;;;4938771;28;20842;-73
2023/06/30 03:18:20;;;;;;;22.43;20.13;;;20.10;1.00;;;;;;4941996;28;20454;-73
2023/06/30 03:20:47;;;;;;;22.13;19.77;;;20.10;1.00;;;;;;4937296;28;20519;-73
2023/06/30 03:23:14;;;;;;;23.83;20.77;;;20.00;1.00;;;;;;4941521;28;20544;-74
2023/06/30 03:25:41;;;;;;;22.37;20.03;;;19.90;1.00;;;;;;4937639;28;20583;-74
2023/06/30 03:28:08;;;;;;;21.77;19.57;;;19.90;1.00;;;;;;4940443;28;20491;-74
2023/06/30 03:30:35;;;;;;;25.27;21.93;;;19.80;1.00;;;;;;4939422;28;20457;-73
2023/06/30 03:33:02;;;;;;;25.47;22.10;;;19.80;1.00;;;;;;4938675;28;20472;-74
2023/06/30 03:35:30;;;;;;;28.87;25.80;;;19.70;1.00;;;;;;4940812;28;20565;-74
2023/06/30 03:37:57;;;;;;;23.33;20.90;;;19.70;1.00;;;;;;4937368;28;20460;-74
2023/06/30 03:40:24;;;;;;;23.63;21.27;;;19.60;1.00;;;;;;4937083;28;20469;-75
2023/06/30 03:42:51;;;;;;;26.00;23.20;;;19.60;1.00;;;;;;4944691;28;20555;-73
2023/06/30 03:45:18;;;;;;;25.07;22.67;;;19.50;1.00;;;;;;4936126;28;20681;-73
2023/06/30 03:47:46;;;;;;;26.00;23.30;;;19.50;1.00;;;;;;4939893;28;20467;-73
2023/06/30 03:50:12;;;;;;;25.13;22.43;;;19.50;1.00;;;;;;4937170;28;20487;-74
2023/06/30 03:52:41;;;;;;;30.43;24.53;;;19.50;1.00;;;;;;4937814;28;20467;-75
2023/06/30 03:55:08;;;;;;;24.70;22.10;;;19.50;1.00;;;;;;4936176;28;20475;-75
2023/06/30 03:57:35;;;;;;;26.03;23.40;;;19.50;1.00;;;;;;4938462;28;20828;-74
2023/06/30 04:00:11;;;;;;;25.67;23.00;;;19.50;1.00;;;;;;4938219;28;20563;-75
2023/06/30 04:02:39;;;;;;;25.60;23.00;;;19.60;1.00;;;;;;4938734;28;20814;-74
2023/06/30 04:05:06;;;;;;;24.70;22.10;;;19.60;1.00;;;;;;4943673;28;20500;-74
2023/06/30 04:07:33;;;;;;;25.77;22.90;;;19.50;1.00;;;;;;4944545;28;20657;-74
2023/06/30 04:10:01;;;;;;;29.97;27.10;;;19.50;1.00;;;;;;4930804;28;21320;-74
2023/06/30 04:12:28;;;;;;;26.90;24.00;;;19.50;1.00;;;;;;4939444;28;20524;-74
2023/06/30 04:14:55;;;;;;;26.10;23.43;;;19.50;1.00;;;;;;4945078;28;20551;-75
2023/06/30 04:17:22;;;;;;;24.20;21.60;;;19.50;1.00;;;;;;4944444;28;20603;-74
2023/06/30 04:19:49;;;;;;;29.33;24.00;;;19.60;1.00;;;;;;4945031;28;20463;-74
2023/06/30 04:22:16;;;;;;;26.03;23.33;;;19.50;1.00;;;;;;4944303;28;20470;-74
2023/06/30 04:24:43;;;;;;;25.00;22.30;;;19.60;1.00;;;;;;4943136;28;20563;-73
2023/06/30 04:27:11;;;;;;;25.27;22.67;;;19.60;1.00;;;;;;4945335;28;20459;-74
2023/06/30 04:29:39;;;;;;;24.30;21.87;;;19.70;1.00;;;;;;4945768;28;20564;-74
2023/06/30 04:32:06;;;;;;;26.10;22.70;;;19.80;1.00;;;;;;4946990;28;20465;-74
2023/06/30 04:34:34;;;;;;;25.30;22.77;;;19.80;1.00;;;;;;4945879;28;20511;-75
2023/06/30 04:37:01;;;;;;;26.13;23.33;;;19.90;1.00;;;;;;4941783;28;21006;-73
2023/06/30 04:39:28;;;;;;;26.20;23.47;;;19.90;1.00;;;;;;4944445;28;20485;-74
2023/06/30 04:41:55;;;;;;;26.90;24.07;;;20.00;1.00;;;;;;4941899;28;20947;-74
2023/06/30 04:44:24;;;;;;;26.90;24.30;;;20.00;1.00;;;;;;4943985;28;20829;-74
2023/06/30 04:46:51;;;;;;;50.33;38.67;;;20.10;1.00;;;;;;4942932;28;20485;-74
2023/06/30 04:49:18;;;;;;;26.47;23.67;;;20.20;1.00;;;;;;4943261;28;20475;-74
2023/06/30 04:51:47;;;;;;;25.70;23.07;;;20.30;1.00;;;;;;4941823;28;20470;-74
2023/06/30 04:54:14;;;;;;;25.63;22.30;;;20.30;1.00;;;;;;4943486;28;20978;-74
2023/06/30 04:56:41;;;;;;;26.40;23.80;;;20.40;1.00;;;;;;4943102;28;20560;-74
2023/06/30 04:59:09;;;;;;;26.90;24.07;;;20.50;1.00;;;;;;4944055;28;21030;-73
2023/06/30 05:01:37;;;;;;;24.83;22.43;;;20.50;1.00;;;;;;4946155;28;20603;-73
2023/06/30 05:04:04;;;;;;;26.97;24.27;;;20.60;1.00;;;;;;4941353;28;20509;-74
2023/06/30 05:06:32;;;;;;;24.23;21.80;;;20.70;1.00;;;;;;4939147;28;20526;-72
2023/06/30 05:08:59;;;;;;;25.37;22.93;;;20.70;1.00;;;;;;4945035;28;20489;-73
2023/06/30 05:11:28;;;;;;;33.30;29.97;;;20.90;1.00;;;;;;4945269;28;20469;-72
2023/06/30 05:13:56;;;;;;;27.40;24.63;;;21.00;1.00;;;;;;4938533;28;20487;-72
2023/06/30 05:16:22;;;;;;;27.50;24.70;;;21.10;1.00;;;;;;4939608;28;20472;-73
2023/06/30 05:18:51;;;;;;;25.37;22.33;;;21.00;1.00;;;;;;4936328;28;20544;-72
2023/06/30 05:21:18;;;;;;;24.80;22.50;;;21.10;1.00;;;;;;4943559;28;20489;-72
2023/06/30 05:23:45;;;;;;;26.07;23.43;;;21.20;1.00;;;;;;4940246;28;20592;-72
2023/06/30 05:26:12;;;;;;;24.50;21.87;;;21.20;1.00;;;;;;4940082;28;20530;-72
2023/06/30 05:28:40;;;;;;;24.60;22.10;;;21.30;1.00;;;;;;4941678;28;20581;-73
2023/06/30 05:31:07;;;;;;;23.10;20.70;;;21.30;1.00;;;;;;4943931;28;20479;-73
2023/06/30 05:33:34;;;;;;;25.33;22.73;;;21.40;1.00;;;;;;4942390;28;20534;-73
2023/06/30 05:36:02;;;;;;;23.50;21.07;;;21.50;1.00;;;;;;4945192;28;20464;-73
2023/06/30 05:38:32;;;;;;;25.03;22.33;;;21.50;1.00;;;;;;4947452;28;20450;-72
2023/06/30 05:40:59;;;;;;;25.10;22.10;;;21.70;1.00;;;;;;4946708;28;20793;-74
2023/06/30 05:43:26;;;;;;;25.13;21.47;;;21.80;1.00;;;;;;4949367;28;20480;-73
2023/06/30 05:45:53;;;;;;;24.67;22.20;;;22.00;1.00;;;;;;4944907;28;20468;-72
2023/06/30 05:48:21;;;;;;;25.00;21.77;;;22.20;1.00;;;;;;4946120;28;20555;-73
2023/06/30 05:50:48;;;;;;;24.20;21.60;;;22.10;1.00;;;;;;4941540;28;20558;-73
2023/06/30 05:53:17;;;;;;;24.70;22.00;;;22.20;1.00;;;;;;4947792;28;20475;-74
2023/06/30 05:55:45;;;;;;;24.03;21.07;;;22.40;1.00;;;;;;4949963;28;20507;-74
2023/06/30 05:58:12;;;;;;;25.20;22.70;;;22.50;1.00;;;;;;4942898;28;20454;-75
2023/06/30 06:00:38;;;;;;;23.73;21.40;;;22.60;1.00;;;;;;4944712;28;20484;-74
2023/06/30 06:03:07;;;;;;;23.67;21.30;;;22.60;1.00;;;;;;4946659;28;20469;-74
2023/06/30 06:05:34;;;;;;;22.80;20.40;;;22.70;1.00;;;;;;4930480;28;20455;-75
2023/06/30 06:08:01;;;;;;;23.17;20.20;;;22.60;1.00;;;;;;4950033;28;20468;-74
2023/06/30 06:10:30;;;;;;;25.43;23.00;;;22.80;1.00;;;;;;4948503;28;20524;-73
2023/06/30 06:12:56;;;;;;;22.40;20.10;;;23.10;1.00;;;;;;4946625;28;20496;-73
2023/06/30 06:15:24;;;;;;;21.60;19.40;;;23.40;1.00;;;;;;4948752;28;20490;-74
2023/06/30 06:17:53;;;;;;;23.50;21.00;;;23.50;1.00;;;;;;4948388;28;20568;-73
2023/06/30 06:20:21;;;;;;;27.13;20.60;;;23.60;1.00;;;;;;4943106;28;20471;-74
2023/06/30 06:22:48;;;;;;;24.97;22.40;;;23.70;1.00;;;;;;4952461;28;20598;-75
2023/06/30 06:25:19;;;;;;;23.80;20.47;;;23.70;1.00;;;;;;4949307;28;20827;-74
2023/06/30 06:27:48;;;;;;;25.60;19.80;;;23.70;1.00;;;;;;4948965;28;20632;-74
2023/06/30 06:30:16;;;;;;;22.10;19.27;;;23.80;1.00;;;;;;4949112;28;20485;-74
2023/06/30 06:32:43;;;;;;;20.97;18.90;;;23.80;1.00;;;;;;4949059;28;21128;-73
2023/06/30 06:35:10;;;;;;;25.30;19.63;;;23.80;1.00;;;;;;4946723;28;20506;-74
2023/06/30 06:37:37;;;;;;;21.37;19.17;;;23.90;1.00;;;;;;4949291;28;20472;-73
2023/06/30 06:40:05;;;;;;;20.10;17.67;;;23.90;1.00;;;;;;4942583;28;21699;-73
2023/06/30 06:42:32;;;;;;;21.40;19.10;;;24.00;1.00;;;;;;4944567;28;20477;-75
2023/06/30 06:45:01;;;;;;;21.00;18.90;;;24.20;1.00;;;;;;4943644;28;21295;-74
2023/06/30 06:48:05;;;;;;;20.30;18.20;;;24.20;1.00;;;;;;4945557;28;20479;-73
2023/06/30 06:50:32;;;;;;;20.67;18.47;;;24.30;1.00;;;;;;4946125;28;20481;-74
2023/06/30 06:53:00;;;;;;;19.17;17.37;;;24.40;1.00;;;;;;4946046;28;20481;-73
2023/06/30 06:55:27;;;;;;;19.17;17.27;;;24.40;1.00;;;;;;4948625;28;20590;-72
2023/06/30 06:57:54;;;;;;;25.40;20.77;;;24.40;1.00;;;;;;4946929;28;20541;-73
2023/06/30 07:00:23;;;;;;;20.50;18.40;;;24.40;1.00;;;;;;4945652;28;20554;-73
2023/06/30 07:02:51;;;;;;;20.47;18.27;;;24.50;1.00;;;;;;4946145;28;20471;-73
2023/06/30 07:05:18;;;;;;;20.00;18.00;;;24.50;1.00;;;;;;4939696;28;20614;-72
2023/06/30 07:07:46;;;;;;;20.60;18.47;;;24.40;1.00;;;;;;4946576;28;20545;-73
2023/06/30 07:10:13;;;;;;;17.83;16.03;;;24.50;1.00;;;;;;4922076;28;21355;-73
2023/06/30 07:12:40;;;;;;;20.13;17.13;;;24.40;1.00;;;;;;4946969;28;20536;-73
2023/06/30 07:15:08;;;;;;;17.93;16.10;;;24.40;1.00;;;;;;4940124;28;20905;-72
2023/06/30 07:17:37;;;;;;;18.67;16.70;;;24.40;1.00;;;;;;4938629;28;20503;-72
2023/06/30 07:20:04;;;;;;;19.17;17.27;;;24.40;1.00;;;;;;4931220;28;20534;-73
2023/06/30 07:22:34;;;;;;;19.77;17.77;;;24.50;1.00;;;;;;4940868;28;20481;-71
2023/06/30 07:25:02;;;;;;;22.17;17.20;;;24.30;1.00;;;;;;4941235;28;21493;-73
2023/06/30 07:27:29;;;;;;;18.53;16.53;;;24.20;1.00;;;;;;4942381;28;20511;-72
2023/06/30 07:29:56;;;;;;;17.90;16.10;;;24.10;1.00;;;;;;4944840;28;20466;-73
2023/06/30 07:32:23;;;;;;;19.40;16.00;;;24.00;1.00;;;;;;4940345;28;20488;-73
2023/06/30 07:34:51;;;;;;;18.50;15.97;;;24.00;1.00;;;;;;4938058;28;20542;-72
2023/06/30 07:37:19;;;;;;;24.27;21.77;;;24.00;1.00;;;;;;4938577;28;20935;-76
2023/06/30 07:39:46;;;;;;;17.30;15.63;;;24.20;1.00;;;;;;4939832;28;20479;-72
2023/06/30 07:42:14;;;;;;;20.00;17.90;;;24.30;1.00;;;;;;4938335;28;20550;-72
2023/06/30 07:44:41;;;;;;;18.60;16.80;;;24.50;1.00;;;;;;4935860;28;20649;-72
2023/06/30 07:47:08;;;;;;;19.20;16.20;;;24.50;1.00;;;;;;4940771;28;20464;-72
2023/06/30 07:49:35;;;;;;;17.83;16.13;;;24.50;1.00;;;;;;4943119;28;20542;-73
2023/06/30 07:52:04;;;;;;;20.63;16.83;;;24.50;1.00;;;;;;4937327;28;20475;-72
2023/06/30 07:54:32;;;;;;;22.90;17.40;;;24.40;1.00;;;;;;4940055;28;20481;-72
2023/06/30 07:56:59;;;;;;;18.00;16.10;;;24.30;1.00;;;;;;4936943;28;20924;-71
2023/06/30 07:59:28;;;;;;;18.57;16.60;;;24.30;1.00;;;;;;4938911;28;20448;-72
2023/06/30 08:01:55;;;;;;;17.67;15.97;;;24.40;1.00;;;;;;4937373;28;21022;-74
2023/06/30 08:04:22;;;;;;;16.20;14.57;;;24.40;1.00;;;;;;4940900;28;20584;-73
2023/06/30 08:06:50;;;;;;;17.87;16.07;;;24.40;1.00;;;;;;4939693;28;20466;-74
2023/06/30 08:09:20;;;;;;;17.90;16.03;;;24.40;1.00;;;;;;4941763;28;20469;-73
2023/06/30 08:11:47;;;;;;;19.10;17.20;;;24.40;1.00;;;;;;4942955;28;20895;-75
2023/06/30 08:14:14;;;;;;;20.87;16.87;;;24.30;1.00;;;;;;4940608;28;20513;-74
2023/06/30 08:16:41;;;;;;;17.83;16.03;;;24.30;1.00;;;;;;4942626;28;20475;-73
2023/06/30 08:19:08;;;;;;;19.00;17.00;;;24.40;1.00;;;;;;4944058;28;20471;-72
2023/06/30 08:21:35;;;;;;;17.60;15.70;;;24.60;1.00;;;;;;4939083;28;20478;-73
2023/06/30 08:24:02;;;;;;;18.80;16.90;;;24.70;1.00;;;;;;4937042;28;20548;-74
2023/06/30 08:26:31;;;;;;;17.27;15.37;;;24.70;1.00;;;;;;4941430;28;20493;-73
2023/06/30 08:28:58;;;;;;;18.17;16.27;;;24.70;1.00;;;;;;4938734;28;20702;-73
2023/06/30 08:31:25;;;;;;;18.27;16.50;;;24.80;1.00;;;;;;4943153;28;20465;-72
2023/06/30 08:33:52;;;;;;;17.40;15.60;;;24.90;1.00;;;;;;4941480;28;20517;-73
2023/06/30 08:36:19;;;;;;;18.60;16.60;;;24.90;1.00;;;;;;4942126;28;20465;-72
2023/06/30 08:38:46;;;;;;;18.23;15.77;;;24.90;1.00;;;;;;4944251;28;20475;-74
2023/06/30 08:41:14;;;;;;;19.57;16.33;;;25.10;1.00;;;;;;4935833;28;20639;-74
2023/06/30 08:43:43;;;;;;;17.93;16.03;;;25.20;1.00;;;;;;4944226;28;20532;-73
2023/06/30 08:46:12;;;;;;;17.43;15.30;;;25.30;1.00;;;;;;4944554;28;20475;-73
2023/06/30 08:48:41;;;;;;;17.40;15.60;;;25.20;1.00;;;;;;4933718;28;20955;-74
2023/06/30 08:51:09;;;;;;;29.30;17.60;;;25.10;1.00;;;;;;4935941;28;20897;-72
2023/06/30 08:53:38;;;;;;;17.43;15.83;;;25.20;1.00;;;;;;4925696;28;20533;-74
2023/06/30 08:56:06;;;;;;;17.50;15.70;;;25.30;1.00;;;;;;4941542;28;20994;-73
2023/06/30 08:58:33;;;;;;;16.43;14.73;;;25.70;1.00;;;;;;4943576;28;20550;-73
2023/06/30 09:01:02;;;;;;;17.37;15.60;;;25.90;1.00;;;;;;4942553;28;20531;-72
2023/06/30 09:03:30;;;;;;;17.97;15.60;;;26.30;1.00;;;;;;4939457;28;20503;-74
2023/06/30 09:06:00;;;;;;;15.50;14.07;;;26.60;1.00;;;;;;4940979;28;20574;-72
2023/06/30 09:08:34;;;;;;;17.93;15.97;;;26.60;1.00;;;;;;4942926;28;20566;-73
2023/06/30 09:11:04;;;;;;;16.47;14.87;;;26.60;1.00;;;;;;4942157;28;20473;-73
2023/06/30 09:13:32;;;;;;;17.03;15.30;;;26.70;1.00;;;;;;4943577;28;20657;-73
2023/06/30 09:16:06;;;;;;;20.10;17.90;;;26.60;1.00;;;;;;4943671;28;20530;-71
2023/06/30 09:18:34;;;;;;;17.47;15.37;;;26.60;1.00;;;;;;4942414;28;20893;-73
2023/06/30 09:21:01;;;;;;;17.23;14.77;;;26.60;1.00;;;;;;4943429;28;20533;-72
2023/06/30 09:23:29;;;;;;;18.53;15.37;;;26.70;1.00;;;;;;4946499;28;20911;-73
2023/06/30 09:25:56;;;;;;;16.40;14.87;;;26.60;1.00;;;;;;4944839;28;20479;-72
2023/06/30 09:28:23;;;;;;;17.50;15.70;;;26.50;1.00;;;;;;4946184;28;20469;-74
2023/06/30 09:30:50;;;;;;;17.13;15.47;;;26.40;1.00;;;;;;4928873;28;20484;-72
2023/06/30 09:33:20;;;;;;;18.70;16.80;;;26.20;1.00;;;;;;4933874;28;20483;-73
2023/06/30 09:35:48;;;;;;;19.23;17.10;;;26.00;1.00;;;;;;4944784;28;20545;-74
2023/06/30 09:38:18;;;;;;;17.90;16.10;;;25.80;1.00;;;;;;4946308;28;20459;-74
2023/06/30 09:40:47;;;;;;;18.00;16.20;;;25.60;1.00;;;;;;4942048;28;20471;-72
2023/06/30 09:43:18;;;;;;;19.57;17.57;;;25.50;1.00;;;;;;4942342;28;20511;-74
2023/06/30 09:45:47;;;;;;;18.03;16.23;;;25.30;1.00;;;;;;4942493;28;20488;-76
2023/06/30 09:48:14;;;;;;;20.60;18.60;;;25.30;1.00;;;;;;4942453;28;20461;-72
2023/06/30 09:50:43;;;;;;;20.87;18.67;;;25.20;1.00;;;;;;4939968;28;20605;-72
2023/06/30 09:53:10;;;;;;;22.70;20.00;;;25.10;1.00;;;;;;4943053;28;20454;-71
2023/06/30 09:55:47;;;;;;;20.30;18.20;;;24.80;1.00;;;;;;4943544;28;20475;-72
2023/06/30 09:58:16;;;;;;;22.10;20.10;;;24.50;1.00;;;;;;4934984;28;22016;-71
2023/06/30 10:00:43;;;;;;;23.70;21.20;;;24.20;1.00;;;;;;4940605;28;20567;-73
2023/06/30 10:03:11;;;;;;;23.73;21.20;;;23.70;1.00;;;;;;4945402;28;20955;-73
2023/06/30 10:05:40;;;;;;;27.17;24.60;;;23.40;1.00;;;;;;4940842;28;20468;-73
2023/06/30 10:08:12;;;;;;;22.87;20.53;;;23.00;1.00;;;;;;4934758;28;20463;-72
2023/06/30 10:10:42;;;;;;;24.03;21.67;;;22.80;1.00;;;;;;4923669;28;20465;-74
2023/06/30 10:13:10;;;;;;;23.70;21.40;;;22.60;1.00;;;;;;4946343;28;20480;-73
2023/06/30 10:15:37;;;;;;;24.73;22.03;;;22.50;1.00;;;;;;4943762;28;20551;-74
2023/06/30 10:18:05;;;;;;;24.70;22.07;;;22.50;1.00;;;;;;4945587;28;20464;-73
2023/06/30 10:20:33;;;;;;;25.37;23.07;;;22.70;1.00;;;;;;4933771;28;20463;-74
2023/06/30 10:23:02;;;;;;;25.97;23.33;;;22.80;1.00;;;;;;4934638;28;20480;-73
2023/06/30 10:25:32;;;;;;;26.20;23.50;;;22.80;1.00;;;;;;4947384;28;20468;-74
2023/06/30 10:27:59;;;;;;;26.57;23.13;;;22.90;1.00;;;;;;4946461;28;20469;-73
2023/06/30 10:30:28;;;;;;;25.67;23.07;;;23.00;1.00;;;;;;4945534;28;20508;-75
2023/06/30 10:32:55;;;;;;;33.20;29.87;;;23.00;1.00;;;;;;4945762;28;20476;-74
2023/06/30 10:35:23;;;;;;;24.50;22.17;;;23.20;1.00;;;;;;4948368;28;20553;-73
2023/06/30 10:37:50;;;;;;;24.50;22.20;;;23.40;1.00;;;;;;4949549;28;20567;-75
2023/06/30 10:40:27;;;;;;;26.70;22.33;;;23.60;1.00;;;;;;4945427;28;21454;-76
2023/06/30 10:42:58;;;;;;;26.00;23.40;;;23.90;1.00;;;;;;4948711;28;20484;-74
2023/06/30 10:45:30;;;;;;;28.43;25.47;;;24.10;1.00;;;;;;4940676;28;20581;-74
2023/06/30 10:47:58;;;;;;;30.70;25.43;;;24.00;1.00;;;;;;4937192;28;20450;-79
2023/06/30 10:50:25;;;;;;;29.40;26.40;;;24.00;1.00;;;;;;4944958;28;20538;-74
2023/06/30 10:52:53;;;;;;;28.80;25.80;;;24.00;1.00;;;;;;4940506;28;20617;-75
2023/06/30 10:55:22;;;;;;;28.03;25.40;;;24.00;1.00;;;;;;4941168;28;20463;-74
2023/06/30 10:57:53;;;;;;;28.10;25.27;;;24.10;1.00;;;;;;4933543;28;20467;-75
2023/06/30 11:00:29;;;;;;;29.47;26.30;;;24.00;1.00;;;;;;4933914;28;20838;-73
2023/06/30 11:02:57;;;;;;;27.90;25.10;;;23.70;1.00;;;;;;4932200;28;20473;-74
2023/06/30 11:05:26;;;;;;;28.20;25.37;;;23.20;1.00;;;;;;4934857;28;20458;-74
2023/06/30 11:07:55;;;;;;;28.60;25.47;;;22.90;1.00;;;;;;4937394;28;20575;-74
2023/06/30 11:10:37;;;;;;;30.50;26.13;;;22.70;1.00;;;;;;4946169;28;20471;-74
2023/06/30 11:13:09;;;;;;;30.90;27.60;;;22.40;1.00;;;;;;4940317;28;20465;-73
2023/06/30 11:15:39;;;;;;;27.37;24.37;;;22.20;1.00;;;;;;4929824;28;20492;-74
2023/06/30 11:18:12;;;;;;;27.50;24.60;;;22.00;1.00;;;;;;4934840;28;20503;-75
2023/06/30 11:20:39;;;;;;;26.33;22.27;;;21.70;1.00;;;;;;4937369;28;20569;-74
2023/06/30 11:23:16;;;;;;;25.63;22.67;;;21.30;1.00;;;;;;4943048;28;20465;-75
2023/06/30 11:25:43;;;;;;;27.33;24.30;;;21.10;1.00;;;;;;4944139;28;20504;-75
2023/06/30 11:28:12;;;;;;;26.00;23.20;;;21.00;1.00;;;;;;4943444;28;20585;-74
2023/06/30 11:30:41;;;;;;;26.60;22.80;;;20.90;1.00;;;;;;4945244;28;20487;-74
2023/06/30 11:33:08;;;;;;;25.57;22.87;;;20.80;1.00;;;;;;4936659;28;20493;-74
2023/06/30 11:35:37;;;;;;;29.50;26.27;;;20.80;1.00;;;;;;4943021;28;20454;-74
2023/06/30 11:38:04;;;;;;;27.90;24.33;;;21.10;1.00;;;;;;4941363;28;20909;-74
2023/06/30 11:40:31;;;;;;;27.17;24.30;;;21.20;1.00;;;;;;4937932;28;20482;-74
2023/06/30 11:43:02;;;;;;;25.00;22.40;;;21.40;1.00;;;;;;4943038;28;20559;-73
2023/06/30 11:45:29;;;;;;;29.17;24.93;;;21.50;1.00;;;;;;4943945;28;20474;-73
2023/06/30 11:47:58;;;;;;;25.73;23.00;;;21.70;1.00;;;;;;4945498;28;20468;-74
2023/06/30 11:50:30;;;;;;;30.53;26.40;;;21.70;1.00;;;;;;4947562;28;20588;-73
2023/06/30 11:52:57;;;;;;;27.17;23.07;;;21.90;1.00;;;;;;4945563;28;20551;-74
2023/06/30 11:55:26;;;;;;;26.23;23.53;;;22.00;1.00;;;;;;4945410;28;20468;-74
2023/06/30 11:57:53;;;;;;;26.70;23.97;;;22.00;1.00;;;;;;4946520;28;20476;-74
2023/06/30 12:00:23;;;;;;;29.40;26.13;;;22.00;1.00;;;;;;4946511;28;20489;-74
2023/06/30 12:02:50;;;;;;;25.13;22.60;;;22.10;1.00;;;;;;4947055;28;20465;-74
2023/06/30 12:05:23;;;;;;;27.10;24.20;;;22.20;1.00;;;;;;4938697;28;20468;-73
2023/06/30 12:07:51;;;;;;;26.83;23.90;;;22.40;1.00;;;;;;4944791;28;21184;-75
2023/06/30 12:10:18;;;;;;;29.40;25.47;;;22.40;1.00;;;;;;4932241;28;20457;-73
2023/06/30 12:12:56;;;;;;;27.53;24.73;;;22.50;1.00;;;;;;4939179;28;20523;-74
2023/06/30 12:15:26;;;;;;;26.90;24.00;;;22.60;1.00;;;;;;4942842;28;20986;-74
2023/06/30 12:17:55;;;;;;;28.00;25.20;;;22.70;1.00;;;;;;4945955;28;20470;-73
2023/06/30 12:20:35;;;;;;;27.40;24.50;;;22.70;1.00;;;;;;4948831;28;20485;-73
2023/06/30 12:23:03;;;;;;;29.20;25.47;;;22.70;1.00;;;;;;4944540;28;20468;-73
2023/06/30 12:25:31;;;;;;;26.80;23.90;;;22.80;1.00;;;;;;4944701;28;20571;-74
2023/06/30 12:27:58;;;;;;;29.60;26.53;;;22.80;1.00;;;;;;4947614;28;20973;-74
2023/06/30 12:30:29;;;;;;;31.03;26.73;;;22.80;1.00;;;;;;4940650;28;20479;-73
2023/06/30 12:32:58;;;;;;;20.60;18.50;;;22.70;1.00;;;;;;4947410;28;20453;-74
2023/06/30 12:35:34;;;;;;;15.60;13.93;;;22.60;1.00;;;;;;4943926;28;20478;-73
2023/06/30 12:38:03;;;;;;;15.27;13.77;;;22.50;1.00;;;;;;4943476;28;20465;-73
2023/06/30 12:40:33;;;;;;;12.30;11.10;;;22.70;1.00;;;;;;4946014;28;20875;-74
2023/06/30 12:43:00;;;;;;;13.30;12.00;;;22.80;1.00;;;;;;4944129;28;20504;-73
2023/06/30 12:45:27;;;;;;;10.10;9.10;;;22.90;1.00;;;;;;4945306;28;20468;-73
2023/06/30 12:47:54;;;;;;;9.33;8.43;;;23.00;1.00;;;;;;4931786;28;20466;-74
2023/06/30 12:50:22;;;;;;;8.80;7.90;;;22.90;1.00;;;;;;4935746;28;20914;-72
2023/06/30 12:52:51;;;;;;;9.60;8.60;;;22.80;1.00;;;;;;4938783;28;20566;-73
2023/06/30 12:55:21;;;;;;;9.87;8.90;;;22.70;1.00;;;;;;4948506;28;20481;-74
2023/06/30 12:57:48;;;;;;;8.93;8.03;;;22.80;1.00;;;;;;4943444;28;20469;-73